Terminal Aerodrome Forecast
Issued by NWS

Home | Current Version | Previous Version | Text Only | Print | Product List | Glossary On
Versions: 1 2 3 4 5 6 7 8 9 10 11 12 13 14 15
343
FTUS42 KTAE 212323
TAFVLD
TAF
KVLD 212323Z 2200/2224 09009KT P6SM BKN025
     FM220200 08010KT P6SM OVC015
     FM221500 12012G18KT P6SM -SHRA BKN015=

USA.gov is the U.S. government's official web portal to all federal, state and local government web resources and services.